Juanita, North Dakota
Current Conditions -  °F | °C
As of 10:35 AM on Thursday 30 Oct 2014 (Local Time) from K46D Reporting Station
Overcast Overcast  
Wind Chill: 23°   Ceiling: 600
Heat Index: 32°   Visibility: 10mi
Dew Point: 32°   Wind: 12mph
Humidity: 100%   Direction: 350°N
Pressure: 30.3"   Gusts: 17mph
Location:  47.4321°N, 98.6914°W
Report Text: K46D 301535Z AUTO 35010G15KT 10SM OVC006 00/00 A3030 RMK AO2
Loading
Personal Weather Stations






























Interactive Weather Map
Tropical Storm Tracking
New forecast layout! Learn more

10-Day Weather Forecast

Advertisements
Track Severe Weather on mobile